sensor_id;sensor_type;location;lat;lon;timestamp;P1;durP1;ratioP1;P2;durP2;ratioP2
6177;SDS011;3122;48.208;11.174;2023-04-24T00:03:41;1.93;;;1.47;;
6177;SDS011;3122;48.208;11.174;2023-04-24T00:08:41;1.20;;;1.10;;
6177;SDS011;3122;48.208;11.174;2023-04-24T00:13:42;1.80;;;1.20;;
6177;SDS011;3122;48.208;11.174;2023-04-24T00:18:42;1.20;;;1.20;;
6177;SDS011;3122;48.208;11.174;2023-04-24T00:23:44;1.30;;;1.20;;
6177;SDS011;3122;48.208;11.174;2023-04-24T00:28:45;1.20;;;1.20;;
6177;SDS011;3122;48.208;11.174;2023-04-24T00:33:46;1.40;;;1.30;;
6177;SDS011;3122;48.208;11.174;2023-04-24T00:38:46;4.70;;;1.10;;
6177;SDS011;3122;48.208;11.174;2023-04-24T00:43:47;1.40;;;1.30;;
6177;SDS011;3122;48.208;11.174;2023-04-24T00:48:47;0.93;;;0.93;;
6177;SDS011;3122;48.208;11.174;2023-04-24T00:53:48;1.00;;;0.97;;
6177;SDS011;3122;48.208;11.174;2023-04-24T00:58:49;0.93;;;0.93;;
6177;SDS011;3122;48.208;11.174;2023-04-24T01:03:50;2.00;;;1.10;;
6177;SDS011;3122;48.208;11.174;2023-04-24T01:08:52;1.77;;;0.93;;
6177;SDS011;3122;48.208;11.174;2023-04-24T01:13:53;1.33;;;1.17;;
6177;SDS011;3122;48.208;11.174;2023-04-24T01:18:54;2.80;;;1.03;;
6177;SDS011;3122;48.208;11.174;2023-04-24T01:23:55;1.00;;;1.00;;
6177;SDS011;3122;48.208;11.174;2023-04-24T01:28:56;1.10;;;1.10;;
6177;SDS011;3122;48.208;11.174;2023-04-24T01:33:57;2.60;;;1.10;;
6177;SDS011;3122;48.208;11.174;2023-04-24T01:38:58;1.53;;;0.87;;
6177;SDS011;3122;48.208;11.174;2023-04-24T01:43:58;1.20;;;1.10;;
6177;SDS011;3122;48.208;11.174;2023-04-24T01:48:59;1.00;;;1.00;;
6177;SDS011;3122;48.208;11.174;2023-04-24T01:54:00;1.30;;;1.20;;
6177;SDS011;3122;48.208;11.174;2023-04-24T01:59:02;0.90;;;0.90;;
6177;SDS011;3122;48.208;11.174;2023-04-24T02:04:04;1.10;;;1.00;;
6177;SDS011;3122;48.208;11.174;2023-04-24T02:09:06;1.67;;;1.13;;
6177;SDS011;3122;48.208;11.174;2023-04-24T02:14:07;1.00;;;1.00;;
6177;SDS011;3122;48.208;11.174;2023-04-24T02:19:07;1.00;;;0.90;;
6177;SDS011;3122;48.208;11.174;2023-04-24T02:24:08;2.10;;;1.10;;
6177;SDS011;3122;48.208;11.174;2023-04-24T02:29:08;1.00;;;1.00;;
6177;SDS011;3122;48.208;11.174;2023-04-24T02:34:09;1.00;;;1.00;;
6177;SDS011;3122;48.208;11.174;2023-04-24T02:39:10;1.10;;;1.00;;
6177;SDS011;3122;48.208;11.174;2023-04-24T02:44:10;1.47;;;1.37;;
6177;SDS011;3122;48.208;11.174;2023-04-24T02:49:11;1.30;;;1.20;;
6177;SDS011;3122;48.208;11.174;2023-04-24T02:54:12;1.50;;;1.40;;
6177;SDS011;3122;48.208;11.174;2023-04-24T02:59:12;2.93;;;1.30;;
6177;SDS011;3122;48.208;11.174;2023-04-24T03:04:13;4.87;;;1.30;;
6177;SDS011;3122;48.208;11.174;2023-04-24T03:09:13;1.27;;;1.27;;
6177;SDS011;3122;48.208;11.174;2023-04-24T03:14:14;1.20;;;1.10;;
6177;SDS011;3122;48.208;11.174;2023-04-24T03:19:14;1.50;;;1.30;;
6177;SDS011;3122;48.208;11.174;2023-04-24T03:24:15;1.87;;;1.33;;
6177;SDS011;3122;48.208;11.174;2023-04-24T03:29:16;1.20;;;1.10;;
6177;SDS011;3122;48.208;11.174;2023-04-24T03:34:16;1.97;;;1.20;;
6177;SDS011;3122;48.208;11.174;2023-04-24T03:39:17;1.40;;;1.30;;
6177;SDS011;3122;48.208;11.174;2023-04-24T03:44:17;1.53;;;1.43;;
6177;SDS011;3122;48.208;11.174;2023-04-24T03:49:18;1.30;;;1.20;;
6177;SDS011;3122;48.208;11.174;2023-04-24T03:54:19;1.03;;;1.03;;
6177;SDS011;3122;48.208;11.174;2023-04-24T03:59:19;1.10;;;1.00;;
6177;SDS011;3122;48.208;11.174;2023-04-24T04:04:20;1.10;;;1.10;;
6177;SDS011;3122;48.208;11.174;2023-04-24T04:09:21;1.27;;;1.00;;
6177;SDS011;3122;48.208;11.174;2023-04-24T04:14:21;1.17;;;1.07;;
6177;SDS011;3122;48.208;11.174;2023-04-24T04:19:23;3.33;;;1.20;;
6177;SDS011;3122;48.208;11.174;2023-04-24T04:24:23;1.50;;;1.10;;
6177;SDS011;3122;48.208;11.174;2023-04-24T04:29:24;1.80;;;1.20;;
6177;SDS011;3122;48.208;11.174;2023-04-24T04:34:25;1.30;;;1.20;;
6177;SDS011;3122;48.208;11.174;2023-04-24T04:39:26;1.20;;;1.10;;
6177;SDS011;3122;48.208;11.174;2023-04-24T04:44:28;1.20;;;0.90;;
6177;SDS011;3122;48.208;11.174;2023-04-24T04:49:31;1.63;;;1.23;;
6177;SDS011;3122;48.208;11.174;2023-04-24T04:54:32;1.20;;;1.20;;
6177;SDS011;3122;48.208;11.174;2023-04-24T04:59:32;1.03;;;0.97;;
6177;SDS011;3122;48.208;11.174;2023-04-24T05:04:33;0.97;;;0.97;;
6177;SDS011;3122;48.208;11.174;2023-04-24T05:09:33;1.23;;;1.00;;
6177;SDS011;3122;48.208;11.174;2023-04-24T05:14:34;0.87;;;0.87;;
6177;SDS011;3122;48.208;11.174;2023-04-24T05:19:34;1.07;;;1.07;;
6177;SDS011;3122;48.208;11.174;2023-04-24T05:24:37;1.07;;;1.07;;
6177;SDS011;3122;48.208;11.174;2023-04-24T05:29:38;1.17;;;1.07;;
6177;SDS011;3122;48.208;11.174;2023-04-24T05:34:39;1.30;;;1.03;;
6177;SDS011;3122;48.208;11.174;2023-04-24T05:39:39;1.10;;;1.10;;
6177;SDS011;3122;48.208;11.174;2023-04-24T05:44:41;1.00;;;1.00;;
6177;SDS011;3122;48.208;11.174;2023-04-24T05:49:42;2.43;;;1.30;;
6177;SDS011;3122;48.208;11.174;2023-04-24T05:54:42;1.20;;;1.10;;
6177;SDS011;3122;48.208;11.174;2023-04-24T05:59:44;0.97;;;0.97;;
6177;SDS011;3122;48.208;11.174;2023-04-24T06:04:45;10.10;;;1.20;;
6177;SDS011;3122;48.208;11.174;2023-04-24T06:09:46;1.27;;;1.17;;
6177;SDS011;3122;48.208;11.174;2023-04-24T06:14:47;1.13;;;1.00;;
6177;SDS011;3122;48.208;11.174;2023-04-24T06:19:47;1.20;;;1.10;;
6177;SDS011;3122;48.208;11.174;2023-04-24T06:24:48;1.10;;;1.10;;
6177;SDS011;3122;48.208;11.174;2023-04-24T06:29:48;1.07;;;1.00;;
6177;SDS011;3122;48.208;11.174;2023-04-24T06:34:54;1.47;;;1.00;;
6177;SDS011;3122;48.208;11.174;2023-04-24T06:39:55;1.27;;;1.07;;
6177;SDS011;3122;48.208;11.174;2023-04-24T06:44:55;2.70;;;1.10;;
6177;SDS011;3122;48.208;11.174;2023-04-24T06:49:56;1.10;;;1.00;;
6177;SDS011;3122;48.208;11.174;2023-04-24T06:55:00;3.50;;;1.47;;
6177;SDS011;3122;48.208;11.174;2023-04-24T07:00:04;1.30;;;1.10;;
6177;SDS011;3122;48.208;11.174;2023-04-24T07:05:06;1.30;;;1.10;;
6177;SDS011;3122;48.208;11.174;2023-04-24T07:10:08;1.20;;;1.10;;
6177;SDS011;3122;48.208;11.174;2023-04-24T07:15:09;1.23;;;0.87;;
6177;SDS011;3122;48.208;11.174;2023-04-24T07:20:10;1.10;;;0.97;;
6177;SDS011;3122;48.208;11.174;2023-04-24T07:25:11;0.80;;;0.80;;
6177;SDS011;3122;48.208;11.174;2023-04-24T07:30:12;2.10;;;0.90;;
6177;SDS011;3122;48.208;11.174;2023-04-24T07:35:12;1.53;;;1.00;;
6177;SDS011;3122;48.208;11.174;2023-04-24T07:40:13;1.30;;;1.00;;
6177;SDS011;3122;48.208;11.174;2023-04-24T07:45:14;1.10;;;1.10;;
6177;SDS011;3122;48.208;11.174;2023-04-24T07:50:15;1.10;;;1.00;;
6177;SDS011;3122;48.208;11.174;2023-04-24T07:55:15;1.00;;;1.00;;
6177;SDS011;3122;48.208;11.174;2023-04-24T08:00:16;1.47;;;0.97;;
6177;SDS011;3122;48.208;11.174;2023-04-24T08:05:17;0.90;;;0.90;;
6177;SDS011;3122;48.208;11.174;2023-04-24T08:10:17;0.80;;;0.80;;
6177;SDS011;3122;48.208;11.174;2023-04-24T08:15:18;1.20;;;1.20;;
6177;SDS011;3122;48.208;11.174;2023-04-24T08:20:19;1.67;;;1.53;;
6177;SDS011;3122;48.208;11.174;2023-04-24T08:25:20;2.60;;;1.23;;
6177;SDS011;3122;48.208;11.174;2023-04-24T08:30:20;2.43;;;1.73;;
6177;SDS011;3122;48.208;11.174;2023-04-24T08:35:21;2.87;;;2.67;;
6177;SDS011;3122;48.208;11.174;2023-04-24T08:40:26;2.23;;;1.80;;
6177;SDS011;3122;48.208;11.174;2023-04-24T08:45:32;5.07;;;1.80;;
6177;SDS011;3122;48.208;11.174;2023-04-24T08:50:33;1.83;;;1.73;;
6177;SDS011;3122;48.208;11.174;2023-04-24T08:55:34;3.43;;;1.63;;
6177;SDS011;3122;48.208;11.174;2023-04-24T09:00:35;1.80;;;1.70;;
6177;SDS011;3122;48.208;11.174;2023-04-24T09:05:38;2.40;;;1.40;;
6177;SDS011;3122;48.208;11.174;2023-04-24T09:10:40;1.87;;;1.77;;
6177;SDS011;3122;48.208;11.174;2023-04-24T09:15:42;2.03;;;1.80;;
6177;SDS011;3122;48.208;11.174;2023-04-24T09:21:26;2.30;;;2.17;;
6177;SDS011;3122;48.208;11.174;2023-04-24T09:26:08;3.03;;;2.77;;
6177;SDS011;3122;48.208;11.174;2023-04-24T09:31:12;2.60;;;2.40;;
6177;SDS011;3122;48.208;11.174;2023-04-24T09:36:17;3.00;;;2.70;;
6177;SDS011;3122;48.208;11.174;2023-04-24T09:41:18;2.40;;;2.20;;
6177;SDS011;3122;48.208;11.174;2023-04-24T09:46:18;2.37;;;2.20;;
6177;SDS011;3122;48.208;11.174;2023-04-24T09:51:32;2.80;;;2.60;;
6177;SDS011;3122;48.208;11.174;2023-04-24T09:56:35;2.30;;;2.10;;
6177;SDS011;3122;48.208;11.174;2023-04-24T10:01:36;2.53;;;2.37;;
6177;SDS011;3122;48.208;11.174;2023-04-24T10:06:38;2.40;;;2.20;;
6177;SDS011;3122;48.208;11.174;2023-04-24T10:11:42;4.03;;;2.10;;
6177;SDS011;3122;48.208;11.174;2023-04-24T10:16:47;3.80;;;2.20;;
6177;SDS011;3122;48.208;11.174;2023-04-24T10:21:48;2.40;;;2.20;;
6177;SDS011;3122;48.208;11.174;2023-04-24T10:26:49;1.40;;;1.30;;
6177;SDS011;3122;48.208;11.174;2023-04-24T10:31:50;1.50;;;1.50;;
6177;SDS011;3122;48.208;11.174;2023-04-24T10:36:51;1.70;;;1.60;;
6177;SDS011;3122;48.208;11.174;2023-04-24T10:41:54;1.70;;;1.60;;
6177;SDS011;3122;48.208;11.174;2023-04-24T10:46:58;1.60;;;1.50;;
6177;SDS011;3122;48.208;11.174;2023-04-24T10:52:02;2.40;;;1.90;;
6177;SDS011;3122;48.208;11.174;2023-04-24T11:02:35;2.90;;;1.70;;
6177;SDS011;3122;48.208;11.174;2023-04-24T11:13:15;1.50;;;1.40;;
6177;SDS011;3122;48.208;11.174;2023-04-24T11:18:16;5.43;;;1.43;;
6177;SDS011;3122;48.208;11.174;2023-04-24T11:23:17;1.50;;;1.40;;
6177;SDS011;3122;48.208;11.174;2023-04-24T11:28:18;1.90;;;1.80;;
6177;SDS011;3122;48.208;11.174;2023-04-24T11:33:19;1.83;;;1.70;;
6177;SDS011;3122;48.208;11.174;2023-04-24T11:38:20;1.43;;;1.33;;
6177;SDS011;3122;48.208;11.174;2023-04-24T11:43:21;2.13;;;2.03;;
6177;SDS011;3122;48.208;11.174;2023-04-24T11:48:22;2.00;;;1.90;;
6177;SDS011;3122;48.208;11.174;2023-04-24T11:53:23;2.47;;;2.10;;
6177;SDS011;3122;48.208;11.174;2023-04-24T11:58:23;2.33;;;2.20;;
6177;SDS011;3122;48.208;11.174;2023-04-24T12:03:26;3.33;;;2.40;;
6177;SDS011;3122;48.208;11.174;2023-04-24T12:08:27;2.10;;;2.00;;
6177;SDS011;3122;48.208;11.174;2023-04-24T12:13:28;2.57;;;1.90;;
6177;SDS011;3122;48.208;11.174;2023-04-24T12:18:30;1.90;;;1.80;;
6177;SDS011;3122;48.208;11.174;2023-04-24T12:23:33;2.00;;;1.90;;
6177;SDS011;3122;48.208;11.174;2023-04-24T12:28:38;1.80;;;1.70;;
6177;SDS011;3122;48.208;11.174;2023-04-24T12:33:39;2.33;;;2.13;;
6177;SDS011;3122;48.208;11.174;2023-04-24T12:38:39;2.70;;;2.10;;
6177;SDS011;3122;48.208;11.174;2023-04-24T12:43:53;2.30;;;2.17;;
6177;SDS011;3122;48.208;11.174;2023-04-24T12:48:55;2.00;;;1.90;;
6177;SDS011;3122;48.208;11.174;2023-04-24T12:53:56;2.00;;;1.90;;
6177;SDS011;3122;48.208;11.174;2023-04-24T12:58:56;2.03;;;1.93;;
6177;SDS011;3122;48.208;11.174;2023-04-24T13:03:57;2.10;;;2.00;;
6177;SDS011;3122;48.208;11.174;2023-04-24T13:08:58;2.23;;;2.03;;
6177;SDS011;3122;48.208;11.174;2023-04-24T13:13:58;2.10;;;1.90;;
6177;SDS011;3122;48.208;11.174;2023-04-24T13:18:59;2.43;;;2.00;;
6177;SDS011;3122;48.208;11.174;2023-04-24T13:24:00;2.10;;;1.90;;
6177;SDS011;3122;48.208;11.174;2023-04-24T13:29:01;1.83;;;1.73;;
6177;SDS011;3122;48.208;11.174;2023-04-24T13:34:02;2.00;;;1.90;;
6177;SDS011;3122;48.208;11.174;2023-04-24T13:39:03;2.40;;;2.20;;
6177;SDS011;3122;48.208;11.174;2023-04-24T13:44:05;2.67;;;2.47;;
6177;SDS011;3122;48.208;11.174;2023-04-24T13:49:06;1.90;;;1.80;;
6177;SDS011;3122;48.208;11.174;2023-04-24T13:54:06;2.73;;;2.37;;
6177;SDS011;3122;48.208;11.174;2023-04-24T13:59:07;3.07;;;2.57;;
6177;SDS011;3122;48.208;11.174;2023-04-24T14:04:08;2.53;;;2.30;;
6177;SDS011;3122;48.208;11.174;2023-04-24T14:09:09;1.90;;;1.80;;
6177;SDS011;3122;48.208;11.174;2023-04-24T14:14:10;2.40;;;2.00;;
6177;SDS011;3122;48.208;11.174;2023-04-24T14:19:11;3.13;;;2.27;;
6177;SDS011;3122;48.208;11.174;2023-04-24T14:24:11;2.20;;;2.00;;
6177;SDS011;3122;48.208;11.174;2023-04-24T14:29:12;2.60;;;2.40;;
6177;SDS011;3122;48.208;11.174;2023-04-24T14:34:13;2.80;;;2.13;;
6177;SDS011;3122;48.208;11.174;2023-04-24T14:39:14;2.10;;;2.00;;
6177;SDS011;3122;48.208;11.174;2023-04-24T14:44:14;2.20;;;2.03;;
6177;SDS011;3122;48.208;11.174;2023-04-24T14:49:15;4.33;;;2.40;;
6177;SDS011;3122;48.208;11.174;2023-04-24T14:54:16;3.00;;;2.00;;
6177;SDS011;3122;48.208;11.174;2023-04-24T14:59:17;2.90;;;2.00;;
6177;SDS011;3122;48.208;11.174;2023-04-24T15:04:17;5.83;;;2.50;;
6177;SDS011;3122;48.208;11.174;2023-04-24T15:09:18;2.83;;;2.63;;
6177;SDS011;3122;48.208;11.174;2023-04-24T15:14:19;3.10;;;2.10;;
6177;SDS011;3122;48.208;11.174;2023-04-24T15:19:20;2.57;;;2.37;;
6177;SDS011;3122;48.208;11.174;2023-04-24T15:24:21;1.87;;;1.77;;
6177;SDS011;3122;48.208;11.174;2023-04-24T15:29:21;2.60;;;1.80;;
6177;SDS011;3122;48.208;11.174;2023-04-24T15:34:22;2.00;;;1.80;;
6177;SDS011;3122;48.208;11.174;2023-04-24T15:39:22;2.10;;;2.00;;
6177;SDS011;3122;48.208;11.174;2023-04-24T15:44:24;1.80;;;1.70;;
6177;SDS011;3122;48.208;11.174;2023-04-24T15:49:25;1.80;;;1.70;;
6177;SDS011;3122;48.208;11.174;2023-04-24T15:54:26;1.60;;;1.50;;
6177;SDS011;3122;48.208;11.174;2023-04-24T15:59:27;1.60;;;1.50;;
6177;SDS011;3122;48.208;11.174;2023-04-24T16:04:29;1.30;;;1.23;;
6177;SDS011;3122;48.208;11.174;2023-04-24T16:09:30;1.40;;;1.30;;
6177;SDS011;3122;48.208;11.174;2023-04-24T16:14:30;1.40;;;1.30;;
6177;SDS011;3122;48.208;11.174;2023-04-24T16:19:31;1.30;;;1.20;;
6177;SDS011;3122;48.208;11.174;2023-04-24T16:24:35;1.60;;;1.60;;
6177;SDS011;3122;48.208;11.174;2023-04-24T16:29:35;1.37;;;1.30;;
6177;SDS011;3122;48.208;11.174;2023-04-24T16:34:36;1.50;;;1.50;;
6177;SDS011;3122;48.208;11.174;2023-04-24T16:39:37;2.83;;;1.57;;
6177;SDS011;3122;48.208;11.174;2023-04-24T16:44:38;2.90;;;2.50;;
6177;SDS011;3122;48.208;11.174;2023-04-24T16:49:41;1.97;;;1.87;;
6177;SDS011;3122;48.208;11.174;2023-04-24T16:54:42;3.20;;;1.97;;
6177;SDS011;3122;48.208;11.174;2023-04-24T16:59:43;2.00;;;1.80;;
6177;SDS011;3122;48.208;11.174;2023-04-24T17:04:43;2.93;;;2.27;;
6177;SDS011;3122;48.208;11.174;2023-04-24T17:09:44;2.17;;;1.97;;
6177;SDS011;3122;48.208;11.174;2023-04-24T17:14:45;2.30;;;2.10;;
6177;SDS011;3122;48.208;11.174;2023-04-24T17:19:46;2.10;;;1.90;;
6177;SDS011;3122;48.208;11.174;2023-04-24T17:24:46;2.50;;;1.90;;
6177;SDS011;3122;48.208;11.174;2023-04-24T17:29:47;2.40;;;2.20;;
6177;SDS011;3122;48.208;11.174;2023-04-24T17:34:48;2.60;;;2.17;;
6177;SDS011;3122;48.208;11.174;2023-04-24T17:39:49;2.17;;;1.93;;
6177;SDS011;3122;48.208;11.174;2023-04-24T17:44:49;4.47;;;3.60;;
6177;SDS011;3122;48.208;11.174;2023-04-24T17:49:50;3.10;;;2.80;;
6177;SDS011;3122;48.208;11.174;2023-04-24T17:54:51;3.27;;;2.97;;
6177;SDS011;3122;48.208;11.174;2023-04-24T17:59:52;5.63;;;3.20;;
6177;SDS011;3122;48.208;11.174;2023-04-24T18:04:52;3.07;;;2.80;;
6177;SDS011;3122;48.208;11.174;2023-04-24T18:09:53;3.63;;;3.33;;
6177;SDS011;3122;48.208;11.174;2023-04-24T18:14:54;7.80;;;4.00;;
6177;SDS011;3122;48.208;11.174;2023-04-24T18:19:54;2.50;;;2.30;;
6177;SDS011;3122;48.208;11.174;2023-04-24T18:24:55;3.47;;;3.17;;
6177;SDS011;3122;48.208;11.174;2023-04-24T18:29:56;3.30;;;2.70;;
6177;SDS011;3122;48.208;11.174;2023-04-24T18:34:58;4.50;;;3.77;;
6177;SDS011;3122;48.208;11.174;2023-04-24T18:39:58;12.73;;;7.70;;
6177;SDS011;3122;48.208;11.174;2023-04-24T18:44:59;2.57;;;2.40;;
6177;SDS011;3122;48.208;11.174;2023-04-24T18:50:01;2.50;;;2.00;;
6177;SDS011;3122;48.208;11.174;2023-04-24T18:55:02;2.20;;;2.00;;
6177;SDS011;3122;48.208;11.174;2023-04-24T19:00:04;2.50;;;2.30;;
6177;SDS011;3122;48.208;11.174;2023-04-24T19:05:06;2.53;;;1.93;;
6177;SDS011;3122;48.208;11.174;2023-04-24T19:10:07;2.67;;;2.47;;
6177;SDS011;3122;48.208;11.174;2023-04-24T19:15:08;4.10;;;3.07;;
6177;SDS011;3122;48.208;11.174;2023-04-24T19:20:12;14.40;;;9.37;;
6177;SDS011;3122;48.208;11.174;2023-04-24T19:25:13;8.90;;;7.17;;
6177;SDS011;3122;48.208;11.174;2023-04-24T19:30:13;8.70;;;7.17;;
6177;SDS011;3122;48.208;11.174;2023-04-24T19:35:14;7.13;;;6.43;;
6177;SDS011;3122;48.208;11.174;2023-04-24T19:40:15;5.60;;;5.10;;
6177;SDS011;3122;48.208;11.174;2023-04-24T19:45:15;4.73;;;4.20;;
6177;SDS011;3122;48.208;11.174;2023-04-24T19:50:16;5.60;;;5.00;;
6177;SDS011;3122;48.208;11.174;2023-04-24T19:55:16;7.00;;;5.17;;
6177;SDS011;3122;48.208;11.174;2023-04-24T20:00:17;6.60;;;5.90;;
6177;SDS011;3122;48.208;11.174;2023-04-24T20:05:18;5.53;;;5.00;;
6177;SDS011;3122;48.208;11.174;2023-04-24T20:10:18;7.10;;;5.27;;
6177;SDS011;3122;48.208;11.174;2023-04-24T20:15:19;5.17;;;4.67;;
6177;SDS011;3122;48.208;11.174;2023-04-24T20:20:20;6.10;;;5.20;;
6177;SDS011;3122;48.208;11.174;2023-04-24T20:25:20;7.40;;;6.10;;
6177;SDS011;3122;48.208;11.174;2023-04-24T20:30:21;5.60;;;5.10;;
6177;SDS011;3122;48.208;11.174;2023-04-24T20:35:21;7.40;;;6.30;;
6177;SDS011;3122;48.208;11.174;2023-04-24T20:40:22;5.97;;;4.10;;
6177;SDS011;3122;48.208;11.174;2023-04-24T20:45:23;5.17;;;4.67;;
6177;SDS011;3122;48.208;11.174;2023-04-24T20:50:24;4.93;;;4.00;;
6177;SDS011;3122;48.208;11.174;2023-04-24T20:55:25;4.57;;;3.93;;
6177;SDS011;3122;48.208;11.174;2023-04-24T21:00:26;6.13;;;4.50;;
6177;SDS011;3122;48.208;11.174;2023-04-24T21:05:27;4.87;;;3.87;;
6177;SDS011;3122;48.208;11.174;2023-04-24T21:10:28;9.17;;;5.03;;
6177;SDS011;3122;48.208;11.174;2023-04-24T21:15:28;5.10;;;4.00;;
6177;SDS011;3122;48.208;11.174;2023-04-24T21:20:29;3.33;;;3.03;;
6177;SDS011;3122;48.208;11.174;2023-04-24T21:25:30;3.63;;;2.50;;
6177;SDS011;3122;48.208;11.174;2023-04-24T21:30:31;3.33;;;3.03;;
6177;SDS011;3122;48.208;11.174;2023-04-24T21:35:32;3.03;;;2.73;;
6177;SDS011;3122;48.208;11.174;2023-04-24T21:40:32;7.30;;;4.47;;
6177;SDS011;3122;48.208;11.174;2023-04-24T21:45:33;6.27;;;3.90;;
6177;SDS011;3122;48.208;11.174;2023-04-24T21:50:33;3.57;;;3.27;;
6177;SDS011;3122;48.208;11.174;2023-04-24T21:55:34;3.63;;;3.33;;
6177;SDS011;3122;48.208;11.174;2023-04-24T22:00:35;4.30;;;3.90;;
6177;SDS011;3122;48.208;11.174;2023-04-24T22:05:35;5.40;;;4.00;;
6177;SDS011;3122;48.208;11.174;2023-04-24T22:10:36;7.83;;;4.33;;
6177;SDS011;3122;48.208;11.174;2023-04-24T22:15:36;3.90;;;3.60;;
6177;SDS011;3122;48.208;11.174;2023-04-24T22:20:37;3.43;;;3.00;;
6177;SDS011;3122;48.208;11.174;2023-04-24T22:25:38;4.10;;;3.20;;
6177;SDS011;3122;48.208;11.174;2023-04-24T22:30:39;4.47;;;3.37;;
6177;SDS011;3122;48.208;11.174;2023-04-24T22:35:40;3.80;;;3.40;;
6177;SDS011;3122;48.208;11.174;2023-04-24T22:40:41;3.83;;;3.50;;
6177;SDS011;3122;48.208;11.174;2023-04-24T22:45:41;5.17;;;3.23;;
6177;SDS011;3122;48.208;11.174;2023-04-24T22:50:42;4.27;;;3.87;;
6177;SDS011;3122;48.208;11.174;2023-04-24T22:55:42;6.00;;;4.07;;
6177;SDS011;3122;48.208;11.174;2023-04-24T23:00:43;4.87;;;3.30;;
6177;SDS011;3122;48.208;11.174;2023-04-24T23:05:44;5.80;;;4.23;;
6177;SDS011;3122;48.208;11.174;2023-04-24T23:10:44;4.80;;;3.50;;
6177;SDS011;3122;48.208;11.174;2023-04-24T23:15:45;3.50;;;3.27;;
6177;SDS011;3122;48.208;11.174;2023-04-24T23:20:45;3.90;;;3.50;;
6177;SDS011;3122;48.208;11.174;2023-04-24T23:25:46;4.27;;;3.87;;
6177;SDS011;3122;48.208;11.174;2023-04-24T23:30:46;4.20;;;3.80;;
6177;SDS011;3122;48.208;11.174;2023-04-24T23:35:47;3.77;;;3.33;;
6177;SDS011;3122;48.208;11.174;2023-04-24T23:40:48;3.57;;;3.07;;
6177;SDS011;3122;48.208;11.174;2023-04-24T23:45:51;3.77;;;3.27;;
6177;SDS011;3122;48.208;11.174;2023-04-24T23:50:52;3.30;;;3.00;;
6177;SDS011;3122;48.208;11.174;2023-04-24T23:55:53;3.70;;;3.30;;
